sensor_id;sensor_type;location;lat;lon;timestamp;P1;durP1;ratioP1;P2;durP2;ratioP2
69410;SDS011;56604;48.652;9.194;2023-07-16T00:02:21;4.30;;;3.77;;
69410;SDS011;56604;48.652;9.194;2023-07-16T00:04:46;5.27;;;4.07;;
69410;SDS011;56604;48.652;9.194;2023-07-16T00:07:11;2.53;;;2.50;;
69410;SDS011;56604;48.652;9.194;2023-07-16T00:09:36;3.40;;;3.10;;
69410;SDS011;56604;48.652;9.194;2023-07-16T00:12:02;3.40;;;3.10;;
69410;SDS011;56604;48.652;9.194;2023-07-16T00:14:28;5.90;;;3.30;;
69410;SDS011;56604;48.652;9.194;2023-07-16T00:16:53;4.57;;;3.27;;
69410;SDS011;56604;48.652;9.194;2023-07-16T00:19:18;3.20;;;3.00;;
69410;SDS011;56604;48.652;9.194;2023-07-16T00:21:44;4.37;;;3.50;;
69410;SDS011;56604;48.652;9.194;2023-07-16T00:24:09;3.13;;;3.00;;
69410;SDS011;56604;48.652;9.194;2023-07-16T00:26:34;6.33;;;3.23;;
69410;SDS011;56604;48.652;9.194;2023-07-16T00:29:00;5.03;;;2.80;;
69410;SDS011;56604;48.652;9.194;2023-07-16T00:31:25;3.53;;;3.23;;
69410;SDS011;56604;48.652;9.194;2023-07-16T00:33:50;7.97;;;2.83;;
69410;SDS011;56604;48.652;9.194;2023-07-16T00:36:15;4.00;;;2.70;;
69410;SDS011;56604;48.652;9.194;2023-07-16T00:38:41;3.10;;;2.53;;
69410;SDS011;56604;48.652;9.194;2023-07-16T00:41:07;3.07;;;2.63;;
69410;SDS011;56604;48.652;9.194;2023-07-16T00:43:33;3.33;;;3.03;;
69410;SDS011;56604;48.652;9.194;2023-07-16T00:45:58;5.60;;;3.10;;
69410;SDS011;56604;48.652;9.194;2023-07-16T00:48:23;3.77;;;2.70;;
69410;SDS011;56604;48.652;9.194;2023-07-16T00:50:50;5.80;;;3.13;;
69410;SDS011;56604;48.652;9.194;2023-07-16T00:53:17;3.73;;;3.00;;
69410;SDS011;56604;48.652;9.194;2023-07-16T00:55:43;5.93;;;3.37;;
69410;SDS011;56604;48.652;9.194;2023-07-16T00:58:08;4.03;;;3.63;;
69410;SDS011;56604;48.652;9.194;2023-07-16T01:00:34;5.33;;;3.10;;
69410;SDS011;56604;48.652;9.194;2023-07-16T01:03:04;3.63;;;3.30;;
69410;SDS011;56604;48.652;9.194;2023-07-16T01:05:36;3.20;;;2.90;;
69410;SDS011;56604;48.652;9.194;2023-07-16T01:08:09;3.40;;;3.10;;
69410;SDS011;56604;48.652;9.194;2023-07-16T01:10:39;4.10;;;2.40;;
69410;SDS011;56604;48.652;9.194;2023-07-16T01:13:04;2.50;;;2.40;;
69410;SDS011;56604;48.652;9.194;2023-07-16T01:15:30;2.47;;;2.37;;
69410;SDS011;56604;48.652;9.194;2023-07-16T01:17:55;5.87;;;2.63;;
69410;SDS011;56604;48.652;9.194;2023-07-16T01:20:21;2.90;;;2.60;;
69410;SDS011;56604;48.652;9.194;2023-07-16T01:31:27;2.40;;;2.30;;
69410;SDS011;56604;48.652;9.194;2023-07-16T01:33:54;2.47;;;2.23;;
69410;SDS011;56604;48.652;9.194;2023-07-16T01:36:20;2.23;;;2.03;;
69410;SDS011;56604;48.652;9.194;2023-07-16T01:38:50;2.27;;;2.07;;
69410;SDS011;56604;48.652;9.194;2023-07-16T01:41:16;2.27;;;2.13;;
69410;SDS011;56604;48.652;9.194;2023-07-16T01:43:41;2.10;;;2.10;;
69410;SDS011;56604;48.652;9.194;2023-07-16T01:46:07;2.30;;;2.20;;
69410;SDS011;56604;48.652;9.194;2023-07-16T01:48:36;12.23;;;2.40;;
69410;SDS011;56604;48.652;9.194;2023-07-16T01:51:03;2.30;;;2.17;;
69410;SDS011;56604;48.652;9.194;2023-07-16T01:53:28;2.20;;;2.10;;
69410;SDS011;56604;48.652;9.194;2023-07-16T01:55:54;5.43;;;2.60;;
69410;SDS011;56604;48.652;9.194;2023-07-16T01:58:19;2.57;;;2.37;;
69410;SDS011;56604;48.652;9.194;2023-07-16T02:00:45;2.50;;;2.30;;
69410;SDS011;56604;48.652;9.194;2023-07-16T02:03:10;4.63;;;2.43;;
69410;SDS011;56604;48.652;9.194;2023-07-16T02:05:36;2.27;;;2.17;;
69410;SDS011;56604;48.652;9.194;2023-07-16T02:08:01;2.13;;;2.00;;
69410;SDS011;56604;48.652;9.194;2023-07-16T02:10:27;2.03;;;2.00;;
69410;SDS011;56604;48.652;9.194;2023-07-16T02:12:52;1.93;;;1.80;;
69410;SDS011;56604;48.652;9.194;2023-07-16T02:15:18;2.17;;;2.07;;
69410;SDS011;56604;48.652;9.194;2023-07-16T02:17:44;4.03;;;1.93;;
69410;SDS011;56604;48.652;9.194;2023-07-16T02:20:10;3.70;;;2.60;;
69410;SDS011;56604;48.652;9.194;2023-07-16T02:22:36;3.87;;;2.40;;
69410;SDS011;56604;48.652;9.194;2023-07-16T02:25:02;2.27;;;2.10;;
69410;SDS011;56604;48.652;9.194;2023-07-16T02:27:28;3.03;;;2.00;;
69410;SDS011;56604;48.652;9.194;2023-07-16T02:29:54;1.70;;;1.60;;
69410;SDS011;56604;48.652;9.194;2023-07-16T02:32:19;1.93;;;1.83;;
69410;SDS011;56604;48.652;9.194;2023-07-16T02:34:45;1.40;;;1.30;;
69410;SDS011;56604;48.652;9.194;2023-07-16T02:37:10;2.10;;;1.53;;
69410;SDS011;56604;48.652;9.194;2023-07-16T02:39:35;1.70;;;1.60;;
69410;SDS011;56604;48.652;9.194;2023-07-16T02:42:01;2.50;;;1.73;;
69410;SDS011;56604;48.652;9.194;2023-07-16T02:44:26;1.67;;;1.57;;
69410;SDS011;56604;48.652;9.194;2023-07-16T02:46:51;1.73;;;1.63;;
69410;SDS011;56604;48.652;9.194;2023-07-16T02:49:16;1.50;;;1.40;;
69410;SDS011;56604;48.652;9.194;2023-07-16T02:51:42;1.60;;;1.50;;
69410;SDS011;56604;48.652;9.194;2023-07-16T02:54:07;2.57;;;2.10;;
69410;SDS011;56604;48.652;9.194;2023-07-16T02:56:33;5.80;;;2.27;;
69410;SDS011;56604;48.652;9.194;2023-07-16T02:59:01;3.73;;;1.80;;
69410;SDS011;56604;48.652;9.194;2023-07-16T03:01:27;1.97;;;1.83;;
69410;SDS011;56604;48.652;9.194;2023-07-16T03:03:52;5.43;;;2.00;;
69410;SDS011;56604;48.652;9.194;2023-07-16T03:06:17;3.03;;;1.70;;
69410;SDS011;56604;48.652;9.194;2023-07-16T03:08:42;1.80;;;1.80;;
69410;SDS011;56604;48.652;9.194;2023-07-16T03:11:10;2.83;;;2.10;;
69410;SDS011;56604;48.652;9.194;2023-07-16T03:13:36;3.50;;;1.80;;
69410;SDS011;56604;48.652;9.194;2023-07-16T03:16:01;3.50;;;1.97;;
69410;SDS011;56604;48.652;9.194;2023-07-16T03:18:29;1.63;;;1.63;;
69410;SDS011;56604;48.652;9.194;2023-07-16T03:20:56;8.10;;;2.03;;
69410;SDS011;56604;48.652;9.194;2023-07-16T03:23:22;1.70;;;1.60;;
69410;SDS011;56604;48.652;9.194;2023-07-16T03:25:47;2.00;;;1.90;;
69410;SDS011;56604;48.652;9.194;2023-07-16T03:28:13;1.63;;;1.63;;
69410;SDS011;56604;48.652;9.194;2023-07-16T03:30:38;2.20;;;1.93;;
69410;SDS011;56604;48.652;9.194;2023-07-16T03:33:04;2.77;;;1.73;;
69410;SDS011;56604;48.652;9.194;2023-07-16T03:35:29;11.07;;;2.30;;
69410;SDS011;56604;48.652;9.194;2023-07-16T03:37:55;2.03;;;1.80;;
69410;SDS011;56604;48.652;9.194;2023-07-16T03:40:22;1.93;;;1.83;;
69410;SDS011;56604;48.652;9.194;2023-07-16T03:42:50;2.50;;;1.73;;
69410;SDS011;56604;48.652;9.194;2023-07-16T03:45:15;3.70;;;1.77;;
69410;SDS011;56604;48.652;9.194;2023-07-16T03:47:40;4.83;;;1.80;;
69410;SDS011;56604;48.652;9.194;2023-07-16T03:50:06;2.00;;;1.90;;
69410;SDS011;56604;48.652;9.194;2023-07-16T03:52:32;2.83;;;1.80;;
69410;SDS011;56604;48.652;9.194;2023-07-16T03:54:57;1.40;;;1.40;;
69410;SDS011;56604;48.652;9.194;2023-07-16T03:57:22;3.33;;;1.90;;
69410;SDS011;56604;48.652;9.194;2023-07-16T03:59:48;2.70;;;1.80;;
69410;SDS011;56604;48.652;9.194;2023-07-16T04:02:13;4.30;;;1.90;;
69410;SDS011;56604;48.652;9.194;2023-07-16T04:04:38;3.50;;;2.03;;
69410;SDS011;56604;48.652;9.194;2023-07-16T04:07:03;1.60;;;1.50;;
69410;SDS011;56604;48.652;9.194;2023-07-16T04:09:29;6.93;;;1.80;;
69410;SDS011;56604;48.652;9.194;2023-07-16T04:11:54;1.73;;;1.63;;
69410;SDS011;56604;48.652;9.194;2023-07-16T04:14:20;5.50;;;1.60;;
69410;SDS011;56604;48.652;9.194;2023-07-16T04:16:45;1.70;;;1.70;;
69410;SDS011;56604;48.652;9.194;2023-07-16T04:19:10;4.00;;;1.57;;
69410;SDS011;56604;48.652;9.194;2023-07-16T04:21:35;2.00;;;1.60;;
69410;SDS011;56604;48.652;9.194;2023-07-16T04:24:04;5.67;;;2.00;;
69410;SDS011;56604;48.652;9.194;2023-07-16T04:26:30;3.13;;;1.77;;
69410;SDS011;56604;48.652;9.194;2023-07-16T04:28:56;2.23;;;2.03;;
69410;SDS011;56604;48.652;9.194;2023-07-16T04:31:21;2.10;;;1.90;;
69410;SDS011;56604;48.652;9.194;2023-07-16T04:33:46;3.47;;;1.90;;
69410;SDS011;56604;48.652;9.194;2023-07-16T04:36:11;6.63;;;1.70;;
69410;SDS011;56604;48.652;9.194;2023-07-16T04:38:37;2.20;;;2.10;;
69410;SDS011;56604;48.652;9.194;2023-07-16T04:41:02;2.03;;;1.93;;
69410;SDS011;56604;48.652;9.194;2023-07-16T04:43:27;2.10;;;2.00;;
69410;SDS011;56604;48.652;9.194;2023-07-16T04:45:52;5.50;;;1.90;;
69410;SDS011;56604;48.652;9.194;2023-07-16T04:48:18;1.87;;;1.77;;
69410;SDS011;56604;48.652;9.194;2023-07-16T04:50:43;2.17;;;1.93;;
69410;SDS011;56604;48.652;9.194;2023-07-16T04:53:08;4.53;;;2.20;;
69410;SDS011;56604;48.652;9.194;2023-07-16T04:55:38;4.87;;;2.17;;
69410;SDS011;56604;48.652;9.194;2023-07-16T04:58:06;2.63;;;1.80;;
69410;SDS011;56604;48.652;9.194;2023-07-16T05:00:32;5.00;;;1.90;;
69410;SDS011;56604;48.652;9.194;2023-07-16T05:02:58;2.67;;;1.60;;
69410;SDS011;56604;48.652;9.194;2023-07-16T05:05:24;1.93;;;1.83;;
69410;SDS011;56604;48.652;9.194;2023-07-16T05:07:49;2.20;;;2.10;;
69410;SDS011;56604;48.652;9.194;2023-07-16T05:10:14;4.63;;;2.23;;
69410;SDS011;56604;48.652;9.194;2023-07-16T05:12:39;8.67;;;2.10;;
69410;SDS011;56604;48.652;9.194;2023-07-16T05:15:05;4.20;;;1.60;;
69410;SDS011;56604;48.652;9.194;2023-07-16T05:17:31;1.70;;;1.70;;
69410;SDS011;56604;48.652;9.194;2023-07-16T05:19:56;5.50;;;1.90;;
69410;SDS011;56604;48.652;9.194;2023-07-16T05:22:21;2.07;;;1.87;;
69410;SDS011;56604;48.652;9.194;2023-07-16T05:24:46;4.63;;;2.23;;
69410;SDS011;56604;48.652;9.194;2023-07-16T05:27:12;2.40;;;2.17;;
69410;SDS011;56604;48.652;9.194;2023-07-16T05:29:37;2.40;;;1.90;;
69410;SDS011;56604;48.652;9.194;2023-07-16T05:32:03;2.20;;;1.57;;
69410;SDS011;56604;48.652;9.194;2023-07-16T05:34:28;2.20;;;2.10;;
69410;SDS011;56604;48.652;9.194;2023-07-16T05:36:54;2.33;;;2.23;;
69410;SDS011;56604;48.652;9.194;2023-07-16T05:39:20;2.83;;;2.20;;
69410;SDS011;56604;48.652;9.194;2023-07-16T05:41:46;2.33;;;2.13;;
69410;SDS011;56604;48.652;9.194;2023-07-16T05:44:11;2.00;;;1.80;;
69410;SDS011;56604;48.652;9.194;2023-07-16T05:46:36;2.40;;;1.93;;
69410;SDS011;56604;48.652;9.194;2023-07-16T05:49:02;12.27;;;2.00;;
69410;SDS011;56604;48.652;9.194;2023-07-16T05:51:27;8.40;;;1.97;;
69410;SDS011;56604;48.652;9.194;2023-07-16T05:53:52;3.97;;;2.07;;
69410;SDS011;56604;48.652;9.194;2023-07-16T05:56:18;2.50;;;1.70;;
69410;SDS011;56604;48.652;9.194;2023-07-16T05:58:43;2.50;;;1.80;;
69410;SDS011;56604;48.652;9.194;2023-07-16T06:01:08;9.70;;;2.40;;
69410;SDS011;56604;48.652;9.194;2023-07-16T06:03:34;4.03;;;2.27;;
69410;SDS011;56604;48.652;9.194;2023-07-16T06:05:59;6.50;;;1.77;;
69410;SDS011;56604;48.652;9.194;2023-07-16T06:08:24;3.93;;;2.20;;
69410;SDS011;56604;48.652;9.194;2023-07-16T06:10:50;1.70;;;1.60;;
69410;SDS011;56604;48.652;9.194;2023-07-16T06:13:16;2.30;;;1.87;;
69410;SDS011;56604;48.652;9.194;2023-07-16T06:15:41;5.70;;;1.73;;
69410;SDS011;56604;48.652;9.194;2023-07-16T06:18:06;7.20;;;1.87;;
69410;SDS011;56604;48.652;9.194;2023-07-16T06:20:32;3.73;;;1.53;;
69410;SDS011;56604;48.652;9.194;2023-07-16T06:22:57;4.47;;;1.60;;
69410;SDS011;56604;48.652;9.194;2023-07-16T06:25:22;7.40;;;1.73;;
69410;SDS011;56604;48.652;9.194;2023-07-16T06:27:48;4.93;;;2.07;;
69410;SDS011;56604;48.652;9.194;2023-07-16T06:30:13;3.87;;;2.00;;
69410;SDS011;56604;48.652;9.194;2023-07-16T06:32:38;4.47;;;1.80;;
69410;SDS011;56604;48.652;9.194;2023-07-16T06:35:04;6.70;;;2.20;;
69410;SDS011;56604;48.652;9.194;2023-07-16T06:37:29;5.37;;;2.30;;
69410;SDS011;56604;48.652;9.194;2023-07-16T06:39:54;3.50;;;1.73;;
69410;SDS011;56604;48.652;9.194;2023-07-16T06:42:20;3.17;;;2.10;;
69410;SDS011;56604;48.652;9.194;2023-07-16T06:44:45;3.03;;;1.77;;
69410;SDS011;56604;48.652;9.194;2023-07-16T06:47:10;2.00;;;1.90;;
69410;SDS011;56604;48.652;9.194;2023-07-16T06:49:36;2.53;;;2.20;;
69410;SDS011;56604;48.652;9.194;2023-07-16T06:52:01;10.30;;;2.10;;
69410;SDS011;56604;48.652;9.194;2023-07-16T06:54:27;1.63;;;1.50;;
69410;SDS011;56604;48.652;9.194;2023-07-16T06:56:52;2.07;;;1.97;;
69410;SDS011;56604;48.652;9.194;2023-07-16T06:59:18;1.80;;;1.70;;
69410;SDS011;56604;48.652;9.194;2023-07-16T07:01:43;1.50;;;1.50;;
69410;SDS011;56604;48.652;9.194;2023-07-16T07:04:08;3.63;;;1.90;;
69410;SDS011;56604;48.652;9.194;2023-07-16T07:06:34;7.60;;;2.10;;
69410;SDS011;56604;48.652;9.194;2023-07-16T07:08:59;1.77;;;1.67;;
69410;SDS011;56604;48.652;9.194;2023-07-16T07:11:24;2.90;;;1.63;;
69410;SDS011;56604;48.652;9.194;2023-07-16T07:13:51;2.07;;;1.33;;
69410;SDS011;56604;48.652;9.194;2023-07-16T07:16:17;3.60;;;1.47;;
69410;SDS011;56604;48.652;9.194;2023-07-16T07:18:42;13.03;;;2.00;;
69410;SDS011;56604;48.652;9.194;2023-07-16T07:21:08;5.73;;;1.63;;
69410;SDS011;56604;48.652;9.194;2023-07-16T07:23:33;4.17;;;1.77;;
69410;SDS011;56604;48.652;9.194;2023-07-16T07:25:58;3.43;;;1.70;;
69410;SDS011;56604;48.652;9.194;2023-07-16T07:28:24;3.47;;;1.93;;
69410;SDS011;56604;48.652;9.194;2023-07-16T07:30:50;1.97;;;1.60;;
69410;SDS011;56604;48.652;9.194;2023-07-16T07:33:15;2.20;;;1.60;;
69410;SDS011;56604;48.652;9.194;2023-07-16T07:35:40;3.57;;;1.90;;
69410;SDS011;56604;48.652;9.194;2023-07-16T07:38:06;3.37;;;2.13;;
69410;SDS011;56604;48.652;9.194;2023-07-16T07:40:31;2.63;;;1.73;;
69410;SDS011;56604;48.652;9.194;2023-07-16T07:42:56;3.53;;;1.60;;
69410;SDS011;56604;48.652;9.194;2023-07-16T07:45:23;1.80;;;1.60;;
69410;SDS011;56604;48.652;9.194;2023-07-16T07:47:49;1.40;;;1.30;;
69410;SDS011;56604;48.652;9.194;2023-07-16T07:50:14;3.50;;;1.93;;
69410;SDS011;56604;48.652;9.194;2023-07-16T07:52:39;2.97;;;1.80;;
69410;SDS011;56604;48.652;9.194;2023-07-16T07:55:04;3.60;;;1.63;;
69410;SDS011;56604;48.652;9.194;2023-07-16T07:57:30;4.60;;;1.70;;
69410;SDS011;56604;48.652;9.194;2023-07-16T07:59:55;3.37;;;1.70;;
69410;SDS011;56604;48.652;9.194;2023-07-16T08:02:24;3.30;;;1.50;;
69410;SDS011;56604;48.652;9.194;2023-07-16T08:04:53;6.70;;;2.10;;
69410;SDS011;56604;48.652;9.194;2023-07-16T08:07:20;2.00;;;1.57;;
69410;SDS011;56604;48.652;9.194;2023-07-16T08:09:46;5.20;;;1.90;;
69410;SDS011;56604;48.652;9.194;2023-07-16T08:12:11;1.77;;;1.63;;
69410;SDS011;56604;48.652;9.194;2023-07-16T08:14:37;8.45;;;1.73;;
69410;SDS011;56604;48.652;9.194;2023-07-16T08:17:02;5.23;;;2.00;;
69410;SDS011;56604;48.652;9.194;2023-07-16T08:19:28;2.03;;;1.87;;
69410;SDS011;56604;48.652;9.194;2023-07-16T08:21:53;6.53;;;1.97;;
69410;SDS011;56604;48.652;9.194;2023-07-16T08:24:19;3.77;;;1.80;;
69410;SDS011;56604;48.652;9.194;2023-07-16T08:26:44;1.77;;;1.67;;
69410;SDS011;56604;48.652;9.194;2023-07-16T08:29:10;6.70;;;1.90;;
69410;SDS011;56604;48.652;9.194;2023-07-16T08:31:35;2.10;;;1.40;;
69410;SDS011;56604;48.652;9.194;2023-07-16T08:34:00;3.63;;;2.10;;
69410;SDS011;56604;48.652;9.194;2023-07-16T08:36:26;3.80;;;1.60;;
69410;SDS011;56604;48.652;9.194;2023-07-16T08:38:51;3.90;;;1.60;;
69410;SDS011;56604;48.652;9.194;2023-07-16T08:41:16;2.67;;;1.60;;
69410;SDS011;56604;48.652;9.194;2023-07-16T08:43:43;2.13;;;1.50;;
69410;SDS011;56604;48.652;9.194;2023-07-16T08:46:10;1.80;;;1.70;;
69410;SDS011;56604;48.652;9.194;2023-07-16T08:48:36;12.23;;;2.10;;
69410;SDS011;56604;48.652;9.194;2023-07-16T08:51:02;12.20;;;1.80;;
69410;SDS011;56604;48.652;9.194;2023-07-16T08:53:28;1.83;;;1.60;;
69410;SDS011;56604;48.652;9.194;2023-07-16T08:55:55;4.33;;;1.53;;
69410;SDS011;56604;48.652;9.194;2023-07-16T08:58:21;2.63;;;1.70;;
69410;SDS011;56604;48.652;9.194;2023-07-16T09:00:48;2.37;;;2.27;;
69410;SDS011;56604;48.652;9.194;2023-07-16T09:03:14;1.53;;;1.43;;
69410;SDS011;56604;48.652;9.194;2023-07-16T09:05:41;1.52;;;1.42;;
69410;SDS011;56604;48.652;9.194;2023-07-16T09:08:07;2.13;;;1.80;;
69410;SDS011;56604;48.652;9.194;2023-07-16T09:10:32;2.75;;;1.88;;
69410;SDS011;56604;48.652;9.194;2023-07-16T09:12:58;1.63;;;1.53;;
69410;SDS011;56604;48.652;9.194;2023-07-16T09:15:24;4.60;;;1.80;;
69410;SDS011;56604;48.652;9.194;2023-07-16T09:17:53;4.67;;;1.70;;
69410;SDS011;56604;48.652;9.194;2023-07-16T09:20:19;3.87;;;1.63;;
69410;SDS011;56604;48.652;9.194;2023-07-16T09:22:44;15.57;;;1.52;;
69410;SDS011;56604;48.652;9.194;2023-07-16T09:25:10;4.63;;;1.90;;
69410;SDS011;56604;48.652;9.194;2023-07-16T09:27:35;1.92;;;1.67;;
69410;SDS011;56604;48.652;9.194;2023-07-16T09:30:02;1.70;;;1.60;;
69410;SDS011;56604;48.652;9.194;2023-07-16T09:32:36;3.00;;;1.52;;
69410;SDS011;56604;48.652;9.194;2023-07-16T09:35:10;1.50;;;1.40;;
69410;SDS011;56604;48.652;9.194;2023-07-16T09:37:37;3.63;;;2.08;;
69410;SDS011;56604;48.652;9.194;2023-07-16T09:40:03;1.85;;;1.67;;
69410;SDS011;56604;48.652;9.194;2023-07-16T09:42:37;2.70;;;1.60;;
69410;SDS011;56604;48.652;9.194;2023-07-16T09:45:07;1.50;;;1.50;;
69410;SDS011;56604;48.652;9.194;2023-07-16T09:47:34;1.83;;;1.50;;
69410;SDS011;56604;48.652;9.194;2023-07-16T09:50:00;1.87;;;1.70;;
69410;SDS011;56604;48.652;9.194;2023-07-16T09:52:27;2.23;;;1.60;;
69410;SDS011;56604;48.652;9.194;2023-07-16T09:54:53;6.57;;;1.80;;
69410;SDS011;56604;48.652;9.194;2023-07-16T09:57:20;1.53;;;1.43;;
69410;SDS011;56604;48.652;9.194;2023-07-16T09:59:48;2.10;;;1.60;;
69410;SDS011;56604;48.652;9.194;2023-07-16T10:02:16;6.90;;;1.63;;
69410;SDS011;56604;48.652;9.194;2023-07-16T10:04:43;3.80;;;1.63;;
69410;SDS011;56604;48.652;9.194;2023-07-16T10:07:18;4.17;;;1.83;;
69410;SDS011;56604;48.652;9.194;2023-07-16T10:12:22;5.80;;;1.77;;
69410;SDS011;56604;48.652;9.194;2023-07-16T10:14:50;3.50;;;1.80;;
69410;SDS011;56604;48.652;9.194;2023-07-16T10:22:17;6.03;;;2.07;;
69410;SDS011;56604;48.652;9.194;2023-07-16T10:24:43;3.67;;;1.60;;
69410;SDS011;56604;48.652;9.194;2023-07-16T10:27:09;4.20;;;1.87;;
69410;SDS011;56604;48.652;9.194;2023-07-16T10:29:34;1.70;;;1.60;;
69410;SDS011;56604;48.652;9.194;2023-07-16T10:32:01;1.80;;;1.70;;
69410;SDS011;56604;48.652;9.194;2023-07-16T10:34:27;2.40;;;1.90;;
69410;SDS011;56604;48.652;9.194;2023-07-16T10:36:52;2.10;;;1.90;;
69410;SDS011;56604;48.652;9.194;2023-07-16T10:39:18;3.13;;;1.80;;
69410;SDS011;56604;48.652;9.194;2023-07-16T10:41:43;4.50;;;1.97;;
69410;SDS011;56604;48.652;9.194;2023-07-16T10:44:09;1.73;;;1.63;;
69410;SDS011;56604;48.652;9.194;2023-07-16T10:46:41;4.23;;;2.00;;
69410;SDS011;56604;48.652;9.194;2023-07-16T10:49:07;1.43;;;1.43;;
69410;SDS011;56604;48.652;9.194;2023-07-16T10:51:33;2.87;;;1.80;;
69410;SDS011;56604;48.652;9.194;2023-07-16T10:53:58;2.60;;;1.77;;
69410;SDS011;56604;48.652;9.194;2023-07-16T10:56:23;2.40;;;2.13;;
69410;SDS011;56604;48.652;9.194;2023-07-16T10:58:49;7.10;;;2.23;;
69410;SDS011;56604;48.652;9.194;2023-07-16T11:01:15;3.90;;;2.10;;
69410;SDS011;56604;48.652;9.194;2023-07-16T11:03:41;3.03;;;2.40;;
69410;SDS011;56604;48.652;9.194;2023-07-16T11:06:08;2.70;;;1.90;;
69410;SDS011;56604;48.652;9.194;2023-07-16T11:08:34;1.97;;;1.87;;
69410;SDS011;56604;48.652;9.194;2023-07-16T11:10:59;2.07;;;1.73;;
69410;SDS011;56604;48.652;9.194;2023-07-16T11:13:28;1.67;;;1.57;;
69410;SDS011;56604;48.652;9.194;2023-07-16T11:15:56;3.30;;;1.87;;
69410;SDS011;56604;48.652;9.194;2023-07-16T11:18:24;6.10;;;2.00;;
69410;SDS011;56604;48.652;9.194;2023-07-16T11:20:50;3.20;;;2.13;;
69410;SDS011;56604;48.652;9.194;2023-07-16T11:23:19;2.13;;;1.93;;
69410;SDS011;56604;48.652;9.194;2023-07-16T11:25:48;1.70;;;1.60;;
69410;SDS011;56604;48.652;9.194;2023-07-16T11:28:14;3.33;;;1.80;;
69410;SDS011;56604;48.652;9.194;2023-07-16T11:30:39;2.13;;;2.03;;
69410;SDS011;56604;48.652;9.194;2023-07-16T11:33:09;5.80;;;2.40;;
69410;SDS011;56604;48.652;9.194;2023-07-16T11:35:38;5.73;;;2.60;;
69410;SDS011;56604;48.652;9.194;2023-07-16T11:38:04;4.47;;;2.70;;
69410;SDS011;56604;48.652;9.194;2023-07-16T11:40:34;4.53;;;2.73;;
69410;SDS011;56604;48.652;9.194;2023-07-16T11:43:07;4.20;;;2.07;;
69410;SDS011;56604;48.652;9.194;2023-07-16T11:45:34;2.90;;;1.70;;
69410;SDS011;56604;48.652;9.194;2023-07-16T11:48:01;3.97;;;3.57;;
69410;SDS011;56604;48.652;9.194;2023-07-16T11:50:27;3.83;;;3.03;;
69410;SDS011;56604;48.652;9.194;2023-07-16T11:52:54;9.27;;;5.23;;
69410;SDS011;56604;48.652;9.194;2023-07-16T11:55:21;2.40;;;2.00;;
69410;SDS011;56604;48.652;9.194;2023-07-16T11:57:47;1.90;;;1.80;;
69410;SDS011;56604;48.652;9.194;2023-07-16T12:00:13;2.70;;;1.80;;
69410;SDS011;56604;48.652;9.194;2023-07-16T12:02:38;1.77;;;1.67;;
69410;SDS011;56604;48.652;9.194;2023-07-16T12:05:04;1.73;;;1.63;;
69410;SDS011;56604;48.652;9.194;2023-07-16T12:07:33;4.87;;;2.50;;
69410;SDS011;56604;48.652;9.194;2023-07-16T12:10:01;2.30;;;1.90;;
69410;SDS011;56604;48.652;9.194;2023-07-16T12:12:30;4.63;;;2.07;;
69410;SDS011;56604;48.652;9.194;2023-07-16T12:14:56;4.93;;;2.00;;
69410;SDS011;56604;48.652;9.194;2023-07-16T12:17:21;3.90;;;2.20;;
69410;SDS011;56604;48.652;9.194;2023-07-16T12:19:46;3.53;;;1.90;;
69410;SDS011;56604;48.652;9.194;2023-07-16T12:22:12;2.40;;;1.90;;
69410;SDS011;56604;48.652;9.194;2023-07-16T12:24:41;1.90;;;1.80;;
69410;SDS011;56604;48.652;9.194;2023-07-16T12:27:06;3.40;;;2.17;;
69410;SDS011;56604;48.652;9.194;2023-07-16T12:29:31;6.50;;;1.90;;
69410;SDS011;56604;48.652;9.194;2023-07-16T12:31:57;2.53;;;1.50;;
69410;SDS011;56604;48.652;9.194;2023-07-16T12:34:22;1.60;;;1.50;;
69410;SDS011;56604;48.652;9.194;2023-07-16T12:36:47;1.97;;;1.87;;
69410;SDS011;56604;48.652;9.194;2023-07-16T12:39:13;1.70;;;1.60;;
69410;SDS011;56604;48.652;9.194;2023-07-16T12:41:38;2.90;;;2.07;;
69410;SDS011;56604;48.652;9.194;2023-07-16T12:44:03;1.80;;;1.70;;
69410;SDS011;56604;48.652;9.194;2023-07-16T12:46:28;2.73;;;2.00;;
69410;SDS011;56604;48.652;9.194;2023-07-16T12:48:54;2.50;;;2.30;;
69410;SDS011;56604;48.652;9.194;2023-07-16T12:51:19;2.87;;;1.87;;
69410;SDS011;56604;48.652;9.194;2023-07-16T12:53:44;2.40;;;2.07;;
69410;SDS011;56604;48.652;9.194;2023-07-16T12:56:10;3.90;;;1.60;;
69410;SDS011;56604;48.652;9.194;2023-07-16T12:58:35;1.97;;;1.83;;
69410;SDS011;56604;48.652;9.194;2023-07-16T13:01:01;2.40;;;2.20;;
69410;SDS011;56604;48.652;9.194;2023-07-16T13:03:27;1.70;;;1.60;;
69410;SDS011;56604;48.652;9.194;2023-07-16T13:05:52;6.13;;;2.13;;
69410;SDS011;56604;48.652;9.194;2023-07-16T13:08:17;5.80;;;1.83;;
69410;SDS011;56604;48.652;9.194;2023-07-16T13:10:43;4.63;;;1.60;;
69410;SDS011;56604;48.652;9.194;2023-07-16T13:13:08;2.33;;;2.20;;
69410;SDS011;56604;48.652;9.194;2023-07-16T13:15:33;2.10;;;1.97;;
69410;SDS011;56604;48.652;9.194;2023-07-16T13:17:59;1.73;;;1.63;;
69410;SDS011;56604;48.652;9.194;2023-07-16T13:20:24;2.10;;;2.00;;
69410;SDS011;56604;48.652;9.194;2023-07-16T13:22:49;5.90;;;1.80;;
69410;SDS011;56604;48.652;9.194;2023-07-16T13:25:15;9.80;;;1.90;;
69410;SDS011;56604;48.652;9.194;2023-07-16T13:27:40;5.60;;;1.90;;
69410;SDS011;56604;48.652;9.194;2023-07-16T13:30:06;2.50;;;1.57;;
69410;SDS011;56604;48.652;9.194;2023-07-16T13:32:32;1.97;;;1.80;;
69410;SDS011;56604;48.652;9.194;2023-07-16T13:34:57;2.20;;;1.93;;
69410;SDS011;56604;48.652;9.194;2023-07-16T13:37:23;1.60;;;1.50;;
69410;SDS011;56604;48.652;9.194;2023-07-16T13:39:48;3.37;;;1.97;;
69410;SDS011;56604;48.652;9.194;2023-07-16T13:42:13;1.73;;;1.63;;
69410;SDS011;56604;48.652;9.194;2023-07-16T13:44:38;2.00;;;1.73;;
69410;SDS011;56604;48.652;9.194;2023-07-16T13:47:04;1.70;;;1.60;;
69410;SDS011;56604;48.652;9.194;2023-07-16T13:49:29;2.13;;;1.97;;
69410;SDS011;56604;48.652;9.194;2023-07-16T13:51:55;1.77;;;1.63;;
69410;SDS011;56604;48.652;9.194;2023-07-16T13:54:20;1.80;;;1.70;;
69410;SDS011;56604;48.652;9.194;2023-07-16T13:56:45;2.00;;;1.80;;
69410;SDS011;56604;48.652;9.194;2023-07-16T13:59:11;2.47;;;1.90;;
69410;SDS011;56604;48.652;9.194;2023-07-16T14:01:39;4.07;;;1.60;;
69410;SDS011;56604;48.652;9.194;2023-07-16T14:04:05;2.40;;;1.97;;
69410;SDS011;56604;48.652;9.194;2023-07-16T14:06:31;7.83;;;1.60;;
69410;SDS011;56604;48.652;9.194;2023-07-16T14:08:56;3.77;;;1.97;;
69410;SDS011;56604;48.652;9.194;2023-07-16T14:11:23;8.57;;;1.73;;
69410;SDS011;56604;48.652;9.194;2023-07-16T14:13:48;3.20;;;1.83;;
69410;SDS011;56604;48.652;9.194;2023-07-16T14:16:16;5.13;;;2.27;;
69410;SDS011;56604;48.652;9.194;2023-07-16T14:18:42;3.13;;;2.20;;
69410;SDS011;56604;48.652;9.194;2023-07-16T14:21:07;4.10;;;2.33;;
69410;SDS011;56604;48.652;9.194;2023-07-16T14:23:33;2.90;;;1.90;;
69410;SDS011;56604;48.652;9.194;2023-07-16T14:25:58;1.90;;;1.80;;
69410;SDS011;56604;48.652;9.194;2023-07-16T14:28:23;6.43;;;1.80;;
69410;SDS011;56604;48.652;9.194;2023-07-16T14:30:48;2.90;;;1.97;;
69410;SDS011;56604;48.652;9.194;2023-07-16T14:33:14;2.30;;;2.10;;
69410;SDS011;56604;48.652;9.194;2023-07-16T14:35:39;3.37;;;2.37;;
69410;SDS011;56604;48.652;9.194;2023-07-16T14:38:04;2.70;;;2.20;;
69410;SDS011;56604;48.652;9.194;2023-07-16T14:40:30;6.83;;;2.67;;
69410;SDS011;56604;48.652;9.194;2023-07-16T14:42:55;2.77;;;2.00;;
69410;SDS011;56604;48.652;9.194;2023-07-16T14:45:20;1.77;;;1.67;;
69410;SDS011;56604;48.652;9.194;2023-07-16T14:47:46;2.70;;;2.13;;
69410;SDS011;56604;48.652;9.194;2023-07-16T14:50:11;2.00;;;1.90;;
69410;SDS011;56604;48.652;9.194;2023-07-16T14:52:36;3.00;;;1.83;;
69410;SDS011;56604;48.652;9.194;2023-07-16T14:55:02;1.87;;;1.77;;
69410;SDS011;56604;48.652;9.194;2023-07-16T14:57:29;2.70;;;2.17;;